Adna, Washington
Current Conditions -  °F | °C
As of 6:35 AM on Tuesday 27 Jan 2015 (Local Time) from KCLS Reporting Station
Moderate Fog Moderate Fog  
Wind Chill: 44°   Ceiling: 400
Heat Index: 46°   Visibility: 0.25mi
Dew Point: 46°   Wind: 6mph
Humidity: 100%   Direction: 200°SSW
Pressure: 30.03"   Gusts: NA
Location:  46.63°N, 123.06°W
Report Text: KCLS 271435Z AUTO 20005KT 1/4SM FG OVC004 08/08 A3003 RMK AO2
Loading
Personal Weather Stations






























Interactive Weather Map New forecast layout! Learn more

10-Day Weather Forecast

Advertisements
Track Severe Weather on mobile